Time;durP1;ratioP1;P1;durP2;ratioP2;P2;SDS_P1;SDS_P2;PMS_P1;PMS_P2;Temp;Humidity;BMP_temperature;BMP_pressure;BME280_temperature;BME280_humidity;BME280_pressure;Samples;Min_cycle;Max_cycle;Signal;HPM_P1;HPM_P2
2022/06/15 00:02:18;;;;;;;;;;;;;;;;;;5033567;28;19948;-73
2022/06/15 00:04:44;;;;;;;;;;;;;;;;;;5033754;28;20323;-73
2022/06/15 00:07:10;;;;;;;;;;;;;;;;;;5032258;28;19909;-73
2022/06/15 00:09:36;;;;;;;;;;;;;;;;;;5033489;28;19909;-72
2022/06/15 00:12:02;;;;;;;;;;;;;;;;;;5032234;28;19959;-72
2022/06/15 00:14:28;;;;;;;;;;;;;;;;;;5033733;28;19959;-72
2022/06/15 00:16:54;;;;;;;;;;;;;;;;;;5033458;28;19913;-73
2022/06/15 00:19:20;;;;;;;;;;;;;;;;;;5033429;28;19948;-73
2022/06/15 00:21:46;;;;;;;;;;;;;;;;;;5033683;28;19910;-72
2022/06/15 00:24:12;;;;;;;;;;;;;;;;;;5033309;28;20285;-73
2022/06/15 00:26:38;;;;;;;;;;;;;;;;;;5033357;28;19963;-73
2022/06/15 00:29:04;;;;;;;;;;;;;;;;;;5033628;28;19909;-73
2022/06/15 00:31:30;;;;;;;;;;;;;;;;;;5034531;28;20007;-72
2022/06/15 00:33:56;;;;;;;;;;;;;;;;;;5037764;28;20362;-73
2022/06/15 00:36:22;;;;;;;;;;;;;;;;;;5037168;28;19947;-72
2022/06/15 00:38:48;;;;;;;;;;;;;;;;;;5037328;28;19909;-73
2022/06/15 00:41:14;;;;;;;;;;;;;;;;;;5036875;28;19917;-73
2022/06/15 00:43:39;;;;;;;;;;;;;;;;;;5036963;28;20010;-74
2022/06/15 00:46:05;;;;;;;;;;;;;;;;;;5037260;28;19913;-73
2022/06/15 00:48:31;;;;;;;;;;;;;;;;;;5036906;28;19944;-73
2022/06/15 00:50:57;;;;;;;;;;;;;;;;;;5037460;28;19909;-73
2022/06/15 00:53:23;;;;;;;;;;;;;;;;;;5036803;28;19916;-72
2022/06/15 00:55:51;;;;;;;;;;;;;;;;;;5037077;28;19910;-72
2022/06/15 00:58:17;;;;;;;;;;;;;;;;;;5036001;28;19963;-73
2022/06/15 01:00:43;;;;;;;;;;;;;;;;;;5036984;28;20345;-73
2022/06/15 01:03:09;;;;;;;;;;;;;;;;;;5036619;28;19913;-73
2022/06/15 01:05:35;;;;;;;;;;;;;;;;;;5037159;28;20345;-73
2022/06/15 01:08:01;;;;;;;;;;;;;;;;;;5036818;28;19955;-73
2022/06/15 01:10:26;;;;;;;;;;;;;;;;;;5036834;28;20322;-73
2022/06/15 01:12:52;;;;;;;;;;;;;;;;;;5036756;28;19948;-73
2022/06/15 01:15:18;;;;;;;;;;;;;;;;;;5036426;28;19916;-72
2022/06/15 01:17:44;;;;;;;;;;;;;;;;;;5036918;28;19913;-73
2022/06/15 01:20:10;;;;;;;;;;;;;;;;;;5036321;28;19913;-72
2022/06/15 01:22:36;;;;;;;;;;;;;;;;;;5036856;28;20412;-72
2022/06/15 01:25:02;;;;;;;;;;;;;;;;;;5034890;28;20320;-73
2022/06/15 01:27:28;;;;;;;;;;;;;;;;;;5036751;28;19916;-73
2022/06/15 01:29:54;;;;;;;;;;;;;;;;;;5036170;28;19909;-72
2022/06/15 01:32:20;;;;;;;;;;;;;;;;;;5034800;28;19913;-72
2022/06/15 01:34:46;;;;;;;;;;;;;;;;;;5036346;28;19909;-72
2022/06/15 01:37:12;;;;;;;;;;;;;;;;;;5036009;28;19932;-73
2022/06/15 01:39:38;;;;;;;;;;;;;;;;;;5035902;28;19909;-72
2022/06/15 01:42:04;;;;;;;;;;;;;;;;;;5035595;28;19946;-72
2022/06/15 01:44:30;;;;;;;;;;;;;;;;;;5034910;28;19921;-72
2022/06/15 01:46:56;;;;;;;;;;;;;;;;;;5035832;28;19909;-72
2022/06/15 01:49:22;;;;;;;;;;;;;;;;;;5036049;28;19909;-73
2022/06/15 01:51:48;;;;;;;;;;;;;;;;;;5035727;28;19931;-73
2022/06/15 01:54:14;;;;;;;;;;;;;;;;;;5035716;28;20288;-73
2022/06/15 01:56:40;;;;;;;;;;;;;;;;;;5035674;28;19913;-72
2022/06/15 01:59:06;;;;;;;;;;;;;;;;;;5035896;28;19970;-72
2022/06/15 02:01:32;;;;;;;;;;;;;;;;;;5035850;28;19909;-72
2022/06/15 02:03:57;;;;;;;;;;;;;;;;;;5035476;28;19913;-72
2022/06/15 02:06:23;;;;;;;;;;;;;;;;;;5036031;28;19916;-73
2022/06/15 02:08:49;;;;;;;;;;;;;;;;;;5035418;28;19913;-72
2022/06/15 02:11:15;;;;;;;;;;;;;;;;;;5034118;28;20004;-73
2022/06/15 02:13:42;;;;;;;;;;;;;;;;;;5035598;28;19909;-73
2022/06/15 02:16:08;;;;;;;;;;;;;;;;;;5034025;28;19909;-73
2022/06/15 02:18:34;;;;;;;;;;;;;;;;;;5035214;28;19909;-74
2022/06/15 02:21:00;;;;;;;;;;;;;;;;;;5035183;28;19960;-73
2022/06/15 02:23:26;;;;;;;;;;;;;;;;;;5035362;28;19952;-73
2022/06/15 02:25:52;;;;;;;;;;;;;;;;;;5035043;28;19909;-73
2022/06/15 02:28:18;;;;;;;;;;;;;;;;;;5035634;28;19910;-73
2022/06/15 02:30:44;;;;;;;;;;;;;;;;;;5035026;28;20007;-72
2022/06/15 02:33:10;;;;;;;;;;;;;;;;;;5034980;28;19913;-74
2022/06/15 02:35:35;;;;;;;;;;;;;;;;;;5033644;28;19909;-73
2022/06/15 02:38:01;;;;;;;;;;;;;;;;;;5034857;28;19909;-73
2022/06/15 02:40:27;;;;;;;;;;;;;;;;;;5035069;28;19920;-72
2022/06/15 02:42:53;;;;;;;;;;;;;;;;;;5035051;28;19909;-73
2022/06/15 02:45:19;;;;;;;;;;;;;;;;;;5035043;28;20360;-72
2022/06/15 02:47:45;;;;;;;;;;;;;;;;;;5033418;28;19995;-73
2022/06/15 02:50:11;;;;;;;;;;;;;;;;;;5034689;28;19924;-72
2022/06/15 02:52:37;;;;;;;;;;;;;;;;;;5034631;28;19910;-73
2022/06/15 02:55:03;;;;;;;;;;;;;;;;;;5034375;28;19971;-73
2022/06/15 02:57:29;;;;;;;;;;;;;;;;;;5033227;28;19909;-73
2022/06/15 02:59:55;;;;;;;;;;;;;;;;;;5033166;28;19909;-72
2022/06/15 03:02:21;;;;;;;;;;;;;;;;;;5034425;28;19952;-74
2022/06/15 03:04:47;;;;;;;;;;;;;;;;;;5034863;28;19960;-72
2022/06/15 03:07:13;;;;;;;;;;;;;;;;;;5034371;28;19945;-73
2022/06/15 03:09:39;;;;;;;;;;;;;;;;;;5034558;28;19909;-72
2022/06/15 03:12:05;;;;;;;;;;;;;;;;;;5034251;28;19909;-72
2022/06/15 03:14:30;;;;;;;;;;;;;;;;;;5034806;28;20254;-72
2022/06/15 03:16:56;;;;;;;;;;;;;;;;;;5034434;28;19999;-73
2022/06/15 03:19:22;;;;;;;;;;;;;;;;;;5034443;28;19913;-73
2022/06/15 03:21:48;;;;;;;;;;;;;;;;;;5034124;28;19935;-73
2022/06/15 03:24:15;;;;;;;;;;;;;;;;;;5034275;28;19964;-72
2022/06/15 03:26:41;;;;;;;;;;;;;;;;;;5032591;28;19917;-73
2022/06/15 03:29:07;;;;;;;;;;;;;;;;;;5034566;28;20304;-73
2022/06/15 03:31:33;;;;;;;;;;;;;;;;;;5034253;28;19963;-73
2022/06/15 03:33:59;;;;;;;;;;;;;;;;;;5033939;28;19909;-73
2022/06/15 03:36:25;;;;;;;;;;;;;;;;;;5032633;28;19963;-73
2022/06/15 03:38:51;;;;;;;;;;;;;;;;;;5034064;28;19909;-72
2022/06/15 03:41:17;;;;;;;;;;;;;;;;;;5032340;28;20324;-73
2022/06/15 03:43:42;;;;;;;;;;;;;;;;;;5033740;28;19924;-72
2022/06/15 03:46:08;;;;;;;;;;;;;;;;;;5033729;28;20289;-72
2022/06/15 03:48:34;;;;;;;;;;;;;;;;;;5033748;28;19909;-73
2022/06/15 03:51:00;;;;;;;;;;;;;;;;;;5034008;28;20397;-72
2022/06/15 03:53:26;;;;;;;;;;;;;;;;;;5033668;28;19941;-72
2022/06/15 03:55:52;;;;;;;;;;;;;;;;;;5033985;28;19916;-72
2022/06/15 03:58:18;;;;;;;;;;;;;;;;;;5033629;28;19916;-72
2022/06/15 04:00:44;;;;;;;;;;;;;;;;;;5033589;28;19913;-72
2022/06/15 04:03:10;;;;;;;;;;;;;;;;;;5034088;28;20320;-72
2022/06/15 04:05:35;;;;;;;;;;;;;;;;;;5033582;28;19952;-72
2022/06/15 04:10:46;;;;;;;;;;;;;;;;;;5037403;28;19924;-72
2022/06/15 04:13:14;;;;;;;;;;;;;;;;;;5037859;28;19909;-73
2022/06/15 04:15:40;;;;;;;;;;;;;;;;;;5037528;28;19913;-72
2022/06/15 04:18:06;;;;;;;;;;;;;;;;;;5037759;28;19913;-73
2022/06/15 04:20:32;;;;;;;;;;;;;;;;;;5037431;28;20284;-73
2022/06/15 04:22:58;;;;;;;;;;;;;;;;;;5037938;28;19909;-72
2022/06/15 04:25:23;;;;;;;;;;;;;;;;;;5037433;28;19959;-73
2022/06/15 04:27:49;;;;;;;;;;;;;;;;;;5037914;28;20261;-73
2022/06/15 04:30:15;;;;;;;;;;;;;;;;;;5037522;28;19942;-72
2022/06/15 04:32:41;;;;;;;;;;;;;;;;;;5037533;28;20254;-72
2022/06/15 04:35:07;;;;;;;;;;;;;;;;;;5037199;28;19998;-73
2022/06/15 04:37:33;;;;;;;;;;;;;;;;;;5037122;28;19910;-73
2022/06/15 04:39:59;;;;;;;;;;;;;;;;;;5037255;28;19959;-73
2022/06/15 04:42:25;;;;;;;;;;;;;;;;;;5037044;28;19909;-72
2022/06/15 04:44:51;;;;;;;;;;;;;;;;;;5037529;28;19918;-72
2022/06/15 04:47:17;;;;;;;;;;;;;;;;;;5036990;28;19956;-73
2022/06/15 04:49:43;;;;;;;;;;;;;;;;;;5035616;28;19913;-72
2022/06/15 04:52:09;;;;;;;;;;;;;;;;;;5037456;28;19910;-73
2022/06/15 04:54:35;;;;;;;;;;;;;;;;;;5036881;28;19952;-72
2022/06/15 04:57:01;;;;;;;;;;;;;;;;;;5035549;28;19916;-72
2022/06/15 04:59:26;;;;;;;;;;;;;;;;;;5037030;28;20281;-72
2022/06/15 05:01:52;;;;;;;;;;;;;;;;;;5036978;28;19909;-73
2022/06/15 05:04:18;;;;;;;;;;;;;;;;;;5036559;28;19913;-72
2022/06/15 05:06:44;;;;;;;;;;;;;;;;;;5037156;28;20373;-73
2022/06/15 05:09:10;;;;;;;;;;;;;;;;;;5036589;28;19955;-72
2022/06/15 05:11:36;;;;;;;;;;;;;;;;;;5036812;28;19915;-72
2022/06/15 05:14:03;;;;;;;;;;;;;;;;;;5036439;28;20004;-73
2022/06/15 05:16:28;;;;;;;;;;;;;;;;;;5036415;28;19909;-74
2022/06/15 05:18:54;;;;;;;;;;;;;;;;;;5035296;28;20004;-73
2022/06/15 05:21:20;;;;;;;;;;;;;;;;;;5036334;28;19940;-72
2022/06/15 05:23:46;;;;;;;;;;;;;;;;;;5036498;28;19913;-73
2022/06/15 05:26:12;;;;;;;;;;;;;;;;;;5036256;28;19975;-72
2022/06/15 05:28:38;;;;;;;;;;;;;;;;;;5036252;28;19909;-72
2022/06/15 05:31:04;;;;;;;;;;;;;;;;;;5036196;28;19913;-73
2022/06/15 05:33:32;;;;;;;;;;;;;;;;;;5036406;28;19964;-72
2022/06/15 05:35:58;;;;;;;;;;;;;;;;;;5036045;28;19910;-72
2022/06/15 05:38:24;;;;;;;;;;;;;;;;;;5036282;28;20465;-73
2022/06/15 05:40:50;;;;;;;;;;;;;;;;;;5035980;28;19967;-72
2022/06/15 05:43:16;;;;;;;;;;;;;;;;;;5035845;28;20263;-73
2022/06/15 05:45:41;;;;;;;;;;;;;;;;;;5035902;28;19909;-73
2022/06/15 05:48:07;;;;;;;;;;;;;;;;;;5036136;28;19952;-73
2022/06/15 05:50:33;;;;;;;;;;;;;;;;;;5035827;28;19971;-73
2022/06/15 05:52:59;;;;;;;;;;;;;;;;;;5036031;28;19909;-72
2022/06/15 05:55:25;;;;;;;;;;;;;;;;;;5036042;28;19909;-72
2022/06/15 05:57:51;;;;;;;;;;;;;;;;;;5035727;28;20012;-71
2022/06/15 06:00:18;;;;;;;;;;;;;;;;;;5035880;28;19941;-73
2022/06/15 06:02:44;;;;;;;;;;;;;;;;;;5035552;28;19909;-73
2022/06/15 06:05:09;;;;;;;;;;;;;;;;;;5034173;28;19966;-73
2022/06/15 06:07:35;;;;;;;;;;;;;;;;;;5035504;28;19909;-72
2022/06/15 06:10:01;;;;;;;;;;;;;;;;;;5035434;28;19996;-73
2022/06/15 06:12:27;;;;;;;;;;;;;;;;;;5035946;28;19909;-72
2022/06/15 06:14:53;;;;;;;;;;;;;;;;;;5035634;28;19958;-73
2022/06/15 06:17:19;;;;;;;;;;;;;;;;;;5035306;28;19949;-73
2022/06/15 06:19:45;;;;;;;;;;;;;;;;;;5035543;28;19916;-73
2022/06/15 06:22:11;;;;;;;;;;;;;;;;;;5035191;28;19909;-72
2022/06/15 06:24:37;;;;;;;;;;;;;;;;;;5035128;28;20023;-72
2022/06/15 06:27:03;;;;;;;;;;;;;;;;;;5035399;28;19944;-73
2022/06/15 06:29:29;;;;;;;;;;;;;;;;;;5034646;28;20331;-73
2022/06/15 06:31:54;;;;;;;;;;;;;;;;;;5035038;28;19916;-74
2022/06/15 06:34:20;;;;;;;;;;;;;;;;;;5035292;28;20295;-72
2022/06/15 06:36:46;;;;;;;;;;;;;;;;;;5034930;28;19909;-73
2022/06/15 06:39:13;;;;;;;;;;;;;;;;;;5034904;28;19909;-73
2022/06/15 06:41:39;;;;;;;;;;;;;;;;;;5034654;28;19921;-73
2022/06/15 06:44:05;;;;;;;;;;;;;;;;;;5034709;28;20377;-73
2022/06/15 06:46:30;;;;;;;;;;;;;;;;;;5035269;28;19913;-73
2022/06/15 06:48:56;;;;;;;;;;;;;;;;;;5034739;28;19956;-73
2022/06/15 06:51:22;;;;;;;;;;;;;;;;;;5033406;28;19909;-73
2022/06/15 06:53:48;;;;;;;;;;;;;;;;;;5034593;28;19910;-74
2022/06/15 06:56:14;;;;;;;;;;;;;;;;;;5034577;28;19915;-74
2022/06/15 06:58:40;;;;;;;;;;;;;;;;;;5033207;28;20388;-73
2022/06/15 07:01:06;;;;;;;;;;;;;;;;;;5034481;28;19913;-74
2022/06/15 07:03:32;;;;;;;;;;;;;;;;;;5034633;28;20002;-74
2022/06/15 07:05:58;;;;;;;;;;;;;;;;;;5034381;28;19909;-74
2022/06/15 07:08:24;;;;;;;;;;;;;;;;;;5034637;28;19915;-74
2022/06/15 07:10:50;;;;;;;;;;;;;;;;;;5034350;28;20317;-75
2022/06/15 07:13:16;;;;;;;;;;;;;;;;;;5034292;28;19916;-74
2022/06/15 07:15:41;;;;;;;;;;;;;;;;;;5034505;28;19910;-74
2022/06/15 07:18:07;;;;;;;;;;;;;;;;;;5034142;28;19917;-74
2022/06/15 07:20:33;;;;;;;;;;;;;;;;;;5032845;28;19913;-74
2022/06/15 07:22:59;;;;;;;;;;;;;;;;;;5034310;28;19918;-74
2022/06/15 07:25:25;;;;;;;;;;;;;;;;;;5034087;28;19955;-75
2022/06/15 07:27:51;;;;;;;;;;;;;;;;;;5034581;28;20381;-74
2022/06/15 07:30:17;;;;;;;;;;;;;;;;;;5034274;28;19917;-74
2022/06/15 07:32:43;;;;;;;;;;;;;;;;;;5033933;28;19971;-74
2022/06/15 07:35:09;;;;;;;;;;;;;;;;;;5034240;28;19909;-74
2022/06/15 07:37:34;;;;;;;;;;;;;;;;;;5033776;28;19909;-74
2022/06/15 07:40:00;;;;;;;;;;;;;;;;;;5033395;28;19920;-74
2022/06/15 07:42:26;;;;;;;;;;;;;;;;;;5033143;28;19920;-74
2022/06/15 07:44:52;;;;;;;;;;;;;;;;;;5033859;28;20320;-76
2022/06/15 07:50:03;;;;;;;;;;;;;;;;;;5033522;28;20387;-75
2022/06/15 07:52:29;;;;;;;;;;;;;;;;;;5032441;28;20007;-76
2022/06/15 07:54:55;;;;;;;;;;;;;;;;;;5033937;28;19916;-75
2022/06/15 07:57:21;;;;;;;;;;;;;;;;;;5033659;28;19913;-75
2022/06/15 07:59:47;;;;;;;;;;;;;;;;;;5032339;28;20279;-75
2022/06/15 08:02:12;;;;;;;;;;;;;;;;;;5033667;28;20007;-76
2022/06/15 08:04:38;;;;;;;;;;;;;;;;;;5033530;28;19936;-76
2022/06/15 08:07:04;;;;;;;;;;;;;;;;;;5033618;28;19916;-77
2022/06/15 08:09:30;;;;;;;;;;;;;;;;;;5033609;28;20423;-75
2022/06/15 08:12:11;;;;;;;;;;;;;;;;;;5032254;28;19913;-77
2022/06/15 08:14:37;;;;;;;;;;;;;;;;;;5032242;28;19916;-75
2022/06/15 08:17:03;;;;;;;;;;;;;;;;;;5033728;28;19909;-75
2022/06/15 08:19:29;;;;;;;;;;;;;;;;;;5033691;28;19910;-75
2022/06/15 08:21:55;;;;;;;;;;;;;;;;;;5033486;28;19952;-75
2022/06/15 08:24:21;;;;;;;;;;;;;;;;;;5033633;28;19917;-75
2022/06/15 08:26:47;;;;;;;;;;;;;;;;;;5033502;28;19909;-75
2022/06/15 08:29:13;;;;;;;;;;;;;;;;;;5033373;28;20056;-77
2022/06/15 08:31:39;;;;;;;;;;;;;;;;;;5033362;28;19984;-77
2022/06/15 08:34:05;;;;;;;;;;;;;;;;;;5032059;28;20320;-77
2022/06/15 08:36:31;;;;;;;;;;;;;;;;;;5033641;28;19945;-77
2022/06/15 08:38:59;;;;;;;;;;;;;;;;;;5031668;28;20299;-76
2022/06/15 08:41:25;;;;;;;;;;;;;;;;;;5033110;28;20377;-76
2022/06/15 08:43:51;;;;;;;;;;;;;;;;;;5033183;28;20381;-75
2022/06/15 08:46:17;;;;;;;;;;;;;;;;;;5033045;28;19959;-76
2022/06/15 08:48:42;;;;;;;;;;;;;;;;;;5033566;28;19909;-75
2022/06/15 08:51:08;;;;;;;;;;;;;;;;;;5034298;28;19976;-74
2022/06/15 08:53:34;;;;;;;;;;;;;;;;;;5036988;28;19909;-74
2022/06/15 08:56:00;;;;;;;;;;;;;;;;;;5037862;28;19998;-77
2022/06/15 08:58:26;;;;;;;;;;;;;;;;;;5036907;28;19909;-74
2022/06/15 09:00:52;;;;;;;;;;;;;;;;;;5035488;28;19916;-76
2022/06/15 09:03:19;;;;;;;;;;;;;;;;;;5036694;28;19915;-76
2022/06/15 09:05:45;;;;;;;;;;;;;;;;;;5036945;28;19916;-77
2022/06/15 09:08:10;;;;;;;;;;;;;;;;;;5035356;28;19913;-77
2022/06/15 09:10:36;;;;;;;;;;;;;;;;;;5037145;28;19976;-75
2022/06/15 09:13:02;;;;;;;;;;;;;;;;;;5036562;28;19913;-74
2022/06/15 09:15:28;;;;;;;;;;;;;;;;;;5036509;28;19916;-75
2022/06/15 09:17:54;;;;;;;;;;;;;;;;;;5036704;28;19917;-75
2022/06/15 09:20:20;;;;;;;;;;;;;;;;;;5036661;28;20302;-74
2022/06/15 09:22:46;;;;;;;;;;;;;;;;;;5036342;28;19916;-74
2022/06/15 09:25:12;;;;;;;;;;;;;;;;;;5036223;28;19913;-76
2022/06/15 09:27:38;;;;;;;;;;;;;;;;;;5036284;28;19916;-78
2022/06/15 09:30:04;;;;;;;;;;;;;;;;;;5036504;28;19960;-75
2022/06/15 09:32:30;;;;;;;;;;;;;;;;;;5036193;28;19916;-74
2022/06/15 09:34:56;;;;;;;;;;;;;;;;;;5036172;28;19975;-74
2022/06/15 09:37:22;;;;;;;;;;;;;;;;;;5036090;28;20361;-74
2022/06/15 09:39:48;;;;;;;;;;;;;;;;;;5035921;28;19943;-77
2022/06/15 09:42:14;;;;;;;;;;;;;;;;;;5035577;28;19917;-76
2022/06/15 09:44:43;;;;;;;;;;;;;;;;;;5034583;28;19928;-76
2022/06/15 09:47:09;;;;;;;;;;;;;;;;;;5035851;28;19909;-76
2022/06/15 09:49:35;;;;;;;;;;;;;;;;;;5036128;28;19958;-74
2022/06/15 09:52:01;;;;;;;;;;;;;;;;;;5035800;28;20389;-77
2022/06/15 09:54:28;;;;;;;;;;;;;;;;;;5035782;28;19909;-76
2022/06/15 09:56:53;;;;;;;;;;;;;;;;;;5034245;28;19963;-80
2022/06/15 09:59:19;;;;;;;;;;;;;;;;;;5034422;28;19995;-79
2022/06/15 10:01:45;;;;;;;;;;;;;;;;;;5034347;28;20275;-76
2022/06/15 10:04:11;;;;;;;;;;;;;;;;;;5034733;28;19913;-80
2022/06/15 10:06:37;;;;;;;;;;;;;;;;;;5035539;28;20332;-77
2022/06/15 10:09:03;;;;;;;;;;;;;;;;;;5035684;28;19955;-77
2022/06/15 10:11:29;;;;;;;;;;;;;;;;;;5035428;28;19909;-75
2022/06/15 10:13:55;;;;;;;;;;;;;;;;;;5035358;28;19913;-77
2022/06/15 10:16:21;;;;;;;;;;;;;;;;;;5035374;28;19913;-76
2022/06/15 10:18:47;;;;;;;;;;;;;;;;;;5035565;28;19948;-75
2022/06/15 10:21:12;;;;;;;;;;;;;;;;;;5035237;28;20406;-76
2022/06/15 10:23:39;;;;;;;;;;;;;;;;;;5035701;28;20003;-74
2022/06/15 10:26:05;;;;;;;;;;;;;;;;;;5035444;28;19963;-73
2022/06/15 10:28:31;;;;;;;;;;;;;;;;;;5035086;28;20339;-73
2022/06/15 10:30:56;;;;;;;;;;;;;;;;;;5035376;28;19909;-73
2022/06/15 10:33:22;;;;;;;;;;;;;;;;;;5035084;28;20389;-73
2022/06/15 10:35:48;;;;;;;;;;;;;;;;;;5035001;28;19909;-72
2022/06/15 10:38:14;;;;;;;;;;;;;;;;;;5033575;28;19909;-73
2022/06/15 10:40:40;;;;;;;;;;;;;;;;;;5033449;28;20344;-74
2022/06/15 10:43:06;;;;;;;;;;;;;;;;;;5033274;28;19917;-74
2022/06/15 10:45:33;;;;;;;;;;;;;;;;;;5034858;28;19916;-72
2022/06/15 10:48:00;;;;;;;;;;;;;;;;;;5033467;28;19909;-73
2022/06/15 10:50:26;;;;;;;;;;;;;;;;;;5034679;28;20270;-71
2022/06/15 10:52:52;;;;;;;;;;;;;;;;;;5034665;28;20277;-73
2022/06/15 11:03:32;;;;;;;;;;;;;;;;;;5034440;28;19920;-73
2022/06/15 11:05:57;;;;;;;;;;;;;;;;;;5034428;28;20377;-74
2022/06/15 11:08:23;;;;;;;;;;;;;;;;;;5034384;28;19944;-72
2022/06/15 11:10:49;;;;;;;;;;;;;;;;;;5034887;28;20268;-73
2022/06/15 11:13:16;;;;;;;;;;;;;;;;;;5032972;28;20409;-73
2022/06/15 11:18:26;;;;;;;;;;;;;;;;;;5034579;28;20062;-76
2022/06/15 11:20:52;;;;;;;;;;;;;;;;;;5034453;28;20361;-73
2022/06/15 11:23:18;;;;;;;;;;;;;;;;;;5034052;28;19944;-73
2022/06/15 11:25:44;;;;;;;;;;;;;;;;;;5034382;28;19913;-75
2022/06/15 11:28:10;;;;;;;;;;;;;;;;;;5034352;28;19920;-73
2022/06/15 11:30:36;;;;;;;;;;;;;;;;;;5034294;28;20376;-74
2022/06/15 11:33:02;;;;;;;;;;;;;;;;;;5033971;28;20035;-72
2022/06/15 11:35:28;;;;;;;;;;;;;;;;;;5032642;28;20354;-74
2022/06/15 11:37:55;;;;;;;;;;;;;;;;;;5032605;28;19917;-73
2022/06/15 11:40:21;;;;;;;;;;;;;;;;;;5034133;28;20011;-74
2022/06/15 11:42:51;;;;;;;;;;;;;;;;;;5034175;28;19983;-72
2022/06/15 11:45:17;;;;;;;;;;;;;;;;;;5034035;28;19988;-72
2022/06/15 11:47:42;;;;;;;;;;;;;;;;;;5034339;28;19909;-73
2022/06/15 11:50:11;;;;;;;;;;;;;;;;;;5032504;28;19909;-74
2022/06/15 11:52:37;;;;;;;;;;;;;;;;;;5034066;28;19909;-73
2022/06/15 11:55:02;;;;;;;;;;;;;;;;;;5033761;28;19976;-73
2022/06/15 11:57:28;;;;;;;;;;;;;;;;;;5033762;28;19979;-74
2022/06/15 11:59:54;;;;;;;;;;;;;;;;;;5033970;28;19932;-73
2022/06/15 12:02:20;;;;;;;;;;;;;;;;;;5033627;28;20000;-73
2022/06/15 12:04:46;;;;;;;;;;;;;;;;;;5033569;28;20373;-73
2022/06/15 12:07:12;;;;;;;;;;;;;;;;;;5033622;28;19909;-73
2022/06/15 12:09:38;;;;;;;;;;;;;;;;;;5033826;28;19910;-73
2022/06/15 12:14:48;;;;;;;;;;;;;;;;;;5033289;28;19916;-73
2022/06/15 12:17:14;;;;;;;;;;;;;;;;;;5033512;28;20319;-74
2022/06/15 12:19:40;;;;;;;;;;;;;;;;;;5034032;28;20281;-73
2022/06/15 12:22:06;;;;;;;;;;;;;;;;;;5032180;28;19920;-74
2022/06/15 12:24:32;;;;;;;;;;;;;;;;;;5033660;28;19959;-74
2022/06/15 12:27:02;;;;;;;;;;;;;;;;;;5033765;28;19963;-73
2022/06/15 12:29:28;;;;;;;;;;;;;;;;;;5037619;28;19909;-73
2022/06/15 12:31:54;;;;;;;;;;;;;;;;;;5037323;28;19909;-73
2022/06/15 12:34:20;;;;;;;;;;;;;;;;;;5037262;28;20084;-73
2022/06/15 12:36:47;;;;;;;;;;;;;;;;;;5037772;28;19909;-73
2022/06/15 12:39:12;;;;;;;;;;;;;;;;;;5037189;28;19917;-73
2022/06/15 12:44:23;;;;;;;;;;;;;;;;;;5036783;28;19924;-72
2022/06/15 12:46:49;;;;;;;;;;;;;;;;;;5037319;28;19910;-73
2022/06/15 12:49:15;;;;;;;;;;;;;;;;;;5036952;28;19932;-72
2022/06/15 12:51:41;;;;;;;;;;;;;;;;;;5036951;28;20006;-73
2022/06/15 12:54:06;;;;;;;;;;;;;;;;;;5035602;28;19913;-73
2022/06/15 12:56:32;;;;;;;;;;;;;;;;;;5037419;28;19916;-72
2022/06/15 12:58:58;;;;;;;;;;;;;;;;;;5037084;28;19909;-73
2022/06/15 13:01:24;;;;;;;;;;;;;;;;;;5036781;28;19910;-73
2022/06/15 13:03:51;;;;;;;;;;;;;;;;;;5037226;28;19917;-74
2022/06/15 13:06:17;;;;;;;;;;;;;;;;;;5035219;28;20262;-73
2022/06/15 13:08:43;;;;;;;;;;;;;;;;;;5035411;28;19951;-73
2022/06/15 13:11:09;;;;;;;;;;;;;;;;;;5035247;28;19944;-73
2022/06/15 13:13:35;;;;;;;;;;;;;;;;;;5035267;28;19909;-72
2022/06/15 13:16:07;;;;;;;;;;;;;;;;;;5036779;28;20003;-72
2022/06/15 13:18:33;;;;;;;;;;;;;;;;;;5036490;28;19950;-73
2022/06/15 13:20:59;;;;;;;;;;;;;;;;;;5036425;28;19991;-73
2022/06/15 13:23:25;;;;;;;;;;;;;;;;;;5036599;28;20008;-73
2022/06/15 13:25:52;;;;;;;;;;;;;;;;;;5036370;28;19949;-74
2022/06/15 13:28:18;;;;;;;;;;;;;;;;;;5036255;28;19910;-73
2022/06/15 13:30:44;;;;;;;;;;;;;;;;;;5036520;28;19909;-73
2022/06/15 13:33:10;;;;;;;;;;;;;;;;;;5036192;28;19916;-72
2022/06/15 13:35:36;;;;;;;;;;;;;;;;;;5036116;28;19935;-73
2022/06/15 13:38:02;;;;;;;;;;;;;;;;;;5035806;28;19916;-72
2022/06/15 13:40:28;;;;;;;;;;;;;;;;;;5034886;28;19917;-72
2022/06/15 13:42:54;;;;;;;;;;;;;;;;;;5036332;28;19924;-73
2022/06/15 13:45:23;;;;;;;;;;;;;;;;;;5036183;28;20320;-74
2022/06/15 13:47:51;;;;;;;;;;;;;;;;;;5035899;28;19909;-73
2022/06/15 13:50:17;;;;;;;;;;;;;;;;;;5034579;28;20361;-73
2022/06/15 13:52:43;;;;;;;;;;;;;;;;;;5035841;28;19909;-73
2022/06/15 13:55:09;;;;;;;;;;;;;;;;;;5035817;28;19909;-72
2022/06/15 13:57:35;;;;;;;;;;;;;;;;;;5036044;28;19909;-73
2022/06/15 14:00:01;;;;;;;;;;;;;;;;;;5035729;28;19920;-73
2022/06/15 14:02:27;;;;;;;;;;;;;;;;;;5035642;28;19909;-73
2022/06/15 14:04:53;;;;;;;;;;;;;;;;;;5036119;28;19913;-72
2022/06/15 14:07:19;;;;;;;;;;;;;;;;;;5035552;28;19910;-73
2022/06/15 14:09:44;;;;;;;;;;;;;;;;;;5035537;28;20006;-73
2022/06/15 14:12:10;;;;;;;;;;;;;;;;;;5035744;28;19913;-73
2022/06/15 14:14:37;;;;;;;;;;;;;;;;;;5035460;28;19909;-73
2022/06/15 14:17:03;;;;;;;;;;;;;;;;;;5035371;28;19916;-75
2022/06/15 14:19:29;;;;;;;;;;;;;;;;;;5035868;28;20358;-73
2022/06/15 14:21:55;;;;;;;;;;;;;;;;;;5035575;28;19959;-74
2022/06/15 14:24:21;;;;;;;;;;;;;;;;;;5035730;28;19924;-74
2022/06/15 14:26:47;;;;;;;;;;;;;;;;;;5035187;28;19909;-74
2022/06/15 14:29:13;;;;;;;;;;;;;;;;;;5035157;28;19916;-73
2022/06/15 14:31:39;;;;;;;;;;;;;;;;;;5035403;28;19909;-73
2022/06/15 14:34:05;;;;;;;;;;;;;;;;;;5033775;28;19913;-73
2022/06/15 14:36:31;;;;;;;;;;;;;;;;;;5034980;28;20012;-73
2022/06/15 14:38:58;;;;;;;;;;;;;;;;;;5034853;28;19975;-73
2022/06/15 14:41:23;;;;;;;;;;;;;;;;;;5034713;28;19987;-73
2022/06/15 14:43:51;;;;;;;;;;;;;;;;;;5034739;28;19968;-73
2022/06/15 14:46:17;;;;;;;;;;;;;;;;;;5035090;28;19916;-73
2022/06/15 14:48:44;;;;;;;;;;;;;;;;;;5033458;28;20284;-72
2022/06/15 14:51:10;;;;;;;;;;;;;;;;;;5034672;28;20383;-72
2022/06/15 14:53:37;;;;;;;;;;;;;;;;;;5034637;28;19996;-71
2022/06/15 14:56:03;;;;;;;;;;;;;;;;;;5034911;28;19916;-73
2022/06/15 14:58:29;;;;;;;;;;;;;;;;;;5034599;28;19910;-75
2022/06/15 15:00:54;;;;;;;;;;;;;;;;;;5034507;28;19909;-72
2022/06/15 15:03:20;;;;;;;;;;;;;;;;;;5034735;28;19995;-73
2022/06/15 15:05:46;;;;;;;;;;;;;;;;;;5034433;28;20419;-74
2022/06/15 15:08:12;;;;;;;;;;;;;;;;;;5034418;28;19909;-72
2022/06/15 15:10:38;;;;;;;;;;;;;;;;;;5034604;28;19932;-73
2022/06/15 15:13:04;;;;;;;;;;;;;;;;;;5034578;28;19909;-75
2022/06/15 15:15:30;;;;;;;;;;;;;;;;;;5034835;28;19909;-72
2022/06/15 15:17:58;;;;;;;;;;;;;;;;;;5034214;28;19956;-73
2022/06/15 15:20:24;;;;;;;;;;;;;;;;;;5034177;28;19909;-73
2022/06/15 15:22:50;;;;;;;;;;;;;;;;;;5034444;28;19909;-73
2022/06/15 15:25:20;;;;;;;;;;;;;;;;;;5034322;28;20392;-73
2022/06/15 15:36:02;;;;;;;;;;;;;;;;;;5034323;28;19963;-74
2022/06/15 15:38:28;;;;;;;;;;;;;;;;;;5033895;28;19909;-72
2022/06/15 15:40:54;;;;;;;;;;;;;;;;;;5033912;28;19917;-73
2022/06/15 15:43:20;;;;;;;;;;;;;;;;;;5033824;28;19917;-73
2022/06/15 15:45:46;;;;;;;;;;;;;;;;;;5034102;28;19909;-74
2022/06/15 15:48:12;;;;;;;;;;;;;;;;;;5034101;28;20336;-72
2022/06/15 15:50:38;;;;;;;;;;;;;;;;;;5033959;28;19909;-73
2022/06/15 15:53:03;;;;;;;;;;;;;;;;;;5033970;28;19955;-72
2022/06/15 15:55:29;;;;;;;;;;;;;;;;;;5033680;28;19909;-73
2022/06/15 15:57:55;;;;;;;;;;;;;;;;;;5033648;28;20377;-71
2022/06/15 16:00:22;;;;;;;;;;;;;;;;;;5032392;28;19913;-73
2022/06/15 16:02:48;;;;;;;;;;;;;;;;;;5032771;28;19956;-75
2022/06/15 16:05:16;;;;;;;;;;;;;;;;;;5032040;28;20268;-72
2022/06/15 16:07:42;;;;;;;;;;;;;;;;;;5024608;28;19913;-72
2022/06/15 16:10:08;;;;;;;;;;;;;;;;;;5034061;28;19948;-73
2022/06/15 16:12:34;;;;;;;;;;;;;;;;;;5025697;28;19960;-73
2022/06/15 16:15:00;;;;;;;;;;;;;;;;;;5024999;28;20455;-73
2022/06/15 16:17:26;;;;;;;;;;;;;;;;;;5022599;28;19913;-73
2022/06/15 16:19:52;;;;;;;;;;;;;;;;;;5013682;28;19920;-73
2022/06/15 16:22:18;;;;;;;;;;;;;;;;;;5014073;28;19918;-73
2022/06/15 16:24:44;;;;;;;;;;;;;;;;;;5013659;28;19920;-73
2022/06/15 16:27:09;;;;;;;;;;;;;;;;;;5013898;28;20321;-73
2022/06/15 16:29:38;;;;;;;;;;;;;;;;;;5024620;28;19909;-73
2022/06/15 16:32:04;;;;;;;;;;;;;;;;;;5032783;28;19913;-73
2022/06/15 16:34:30;;;;;;;;;;;;;;;;;;5013634;28;20324;-73
2022/06/15 16:36:55;;;;;;;;;;;;;;;;;;5014216;28;19909;-73
2022/06/15 16:39:21;;;;;;;;;;;;;;;;;;5013927;28;19917;-75
2022/06/15 16:41:47;;;;;;;;;;;;;;;;;;5024424;28;20385;-72
2022/06/15 16:44:13;;;;;;;;;;;;;;;;;;5024911;28;20067;-73
2022/06/15 16:46:39;;;;;;;;;;;;;;;;;;5027120;28;19910;-72
2022/06/15 16:49:05;;;;;;;;;;;;;;;;;;5013060;28;19910;-72
2022/06/15 16:51:31;;;;;;;;;;;;;;;;;;5013068;28;20381;-73
2022/06/15 16:53:58;;;;;;;;;;;;;;;;;;5013032;28;19937;-73
2022/06/15 16:56:24;;;;;;;;;;;;;;;;;;5012984;28;19910;-73
2022/06/15 16:58:50;;;;;;;;;;;;;;;;;;5013000;28;19917;-73
2022/06/15 17:01:16;;;;;;;;;;;;;;;;;;5013211;28;19949;-74
2022/06/15 17:03:42;;;;;;;;;;;;;;;;;;5013596;28;20020;-74
2022/06/15 17:06:08;;;;;;;;;;;;;;;;;;5011503;28;19909;-72
2022/06/15 17:08:33;;;;;;;;;;;;;;;;;;5011358;28;19952;-73